Time;durP1;ratioP1;P1;durP2;ratioP2;P2;SDS_P1;SDS_P2;PMS_P1;PMS_P2;Temp;Humidity;BMP_temperature;BMP_pressure;BME280_temperature;BME280_humidity;BME280_pressure;Samples;Min_cycle;Max_cycle;Signal;HPM_P1;HPM_P2
2022/07/11 00:00:45;;;;;;;2.75;1.40;;;12.30;99.90;;;;;;4996397;28;20269;-81
2022/07/11 00:03:11;;;;;;;2.65;1.10;;;12.20;99.90;;;;;;5003050;28;20187;-81
2022/07/11 00:05:37;;;;;;;1.75;0.90;;;12.10;99.90;;;;;;5003441;28;20595;-81
2022/07/11 00:08:06;;;;;;;2.55;1.10;;;12.10;99.90;;;;;;5005377;28;20187;-81
2022/07/11 00:10:47;;;;;;;3.72;1.00;;;12.00;99.90;;;;;;5003101;28;20213;-81
2022/07/11 00:13:20;;;;;;;1.57;1.10;;;12.00;99.90;;;;;;5004467;28;20189;-81
2022/07/11 00:15:45;;;;;;;3.50;1.10;;;11.90;99.90;;;;;;5001174;28;20219;-83
2022/07/11 00:18:11;;;;;;;2.15;1.00;;;11.80;99.90;;;;;;5018109;28;20186;-82
2022/07/11 00:20:37;;;;;;;4.60;1.47;;;11.80;99.90;;;;;;5002834;28;20207;-82
2022/07/11 00:23:03;;;;;;;1.30;1.10;;;11.70;99.90;;;;;;5019286;28;20183;-80
2022/07/11 00:25:31;;;;;;;4.40;1.30;;;11.70;99.90;;;;;;5003132;28;20710;-81
2022/07/11 00:27:59;;;;;;;3.93;1.40;;;11.60;99.90;;;;;;5001973;28;20188;-81
2022/07/11 00:30:25;;;;;;;1.40;1.03;;;11.60;99.90;;;;;;5004609;28;20203;-80
2022/07/11 00:32:50;;;;;;;3.33;1.30;;;11.50;99.90;;;;;;5003476;28;20704;-81
2022/07/11 00:35:16;;;;;;;2.23;1.13;;;11.50;99.90;;;;;;5005395;28;20233;-81
2022/07/11 00:37:45;;;;;;;2.03;1.23;;;11.40;99.90;;;;;;5005876;28;20183;-83
2022/07/11 00:40:18;;;;;;;1.47;1.00;;;11.40;99.90;;;;;;5009564;28;20303;-80
2022/07/11 00:43:06;;;;;;;1.50;1.10;;;11.50;99.90;;;;;;5011839;28;20179;-80
2022/07/11 00:45:34;;;;;;;0.90;0.90;;;11.50;99.90;;;;;;5005309;28;20301;-82
2022/07/11 00:48:00;;;;;;;1.93;1.47;;;11.50;99.90;;;;;;5019912;28;20642;-81
2022/07/11 00:50:26;;;;;;;3.33;1.20;;;11.60;99.90;;;;;;5002703;28;20210;-81
2022/07/11 00:52:52;;;;;;;1.20;1.10;;;11.70;99.90;;;;;;5010689;28;20195;-83
2022/07/11 00:55:21;;;;;;;1.83;1.20;;;11.80;99.90;;;;;;5003175;28;20824;-81
2022/07/11 00:57:49;;;;;;;2.17;1.27;;;11.90;99.90;;;;;;5002777;28;20585;-82
2022/07/11 01:00:14;;;;;;;1.63;1.30;;;11.90;99.90;;;;;;5004105;28;20203;-82
2022/07/11 01:02:43;;;;;;;1.50;1.40;;;12.00;99.90;;;;;;5002706;28;20197;-81
2022/07/11 01:05:09;;;;;;;3.00;1.30;;;12.10;99.90;;;;;;5002781;28;20223;-82
2022/07/11 01:07:34;;;;;;;3.35;1.20;;;12.20;99.90;;;;;;5019594;28;20219;-81
2022/07/11 01:10:00;;;;;;;3.00;1.30;;;12.20;99.90;;;;;;5002481;28;20757;-81
2022/07/11 01:12:27;;;;;;;1.70;1.30;;;12.30;99.90;;;;;;5019233;28;20740;-81
2022/07/11 01:14:53;;;;;;;1.83;0.95;;;12.30;99.90;;;;;;5005272;28;20196;-78
2022/07/11 01:17:20;;;;;;;1.50;1.15;;;12.40;99.90;;;;;;5004439;28;20184;-81
2022/07/11 01:19:46;;;;;;;4.10;1.10;;;12.40;99.90;;;;;;5004449;28;20663;-81
2022/07/11 01:22:14;;;;;;;1.17;1.00;;;12.50;99.90;;;;;;5003368;28;20183;-81
2022/07/11 01:24:42;;;;;;;1.30;1.20;;;12.40;99.90;;;;;;5004913;28;20242;-81
2022/07/11 01:27:09;;;;;;;2.58;1.27;;;12.40;99.90;;;;;;5003688;28;20249;-80
2022/07/11 01:29:35;;;;;;;2.83;1.10;;;12.40;99.90;;;;;;5007576;28;20211;-81
2022/07/11 01:32:00;;;;;;;1.58;1.13;;;12.40;99.90;;;;;;5008842;28;20233;-80
2022/07/11 01:34:26;;;;;;;2.72;1.40;;;12.30;99.90;;;;;;5006420;28;20240;-79
2022/07/11 01:36:52;;;;;;;2.25;1.35;;;12.40;99.90;;;;;;5007071;28;20180;-82
2022/07/11 01:39:18;;;;;;;1.77;1.20;;;12.40;99.90;;;;;;5007866;28;20203;-81
2022/07/11 01:41:44;;;;;;;1.63;1.23;;;12.40;99.90;;;;;;5008801;28;20189;-80
2022/07/11 01:44:10;;;;;;;3.17;1.42;;;12.40;99.90;;;;;;5008469;28;20180;-81
2022/07/11 01:46:35;;;;;;;2.47;1.20;;;12.50;99.90;;;;;;5022915;28;20187;-80
2022/07/11 01:49:01;;;;;;;2.25;1.33;;;12.50;99.90;;;;;;5005569;28;20180;-81
2022/07/11 01:51:36;;;;;;;4.25;1.10;;;12.60;99.90;;;;;;5006376;28;20195;-81
2022/07/11 01:54:02;;;;;;;2.35;1.20;;;12.60;99.90;;;;;;5013277;28;20628;-80
2022/07/11 01:56:29;;;;;;;2.58;1.08;;;12.60;99.90;;;;;;5005207;28;20310;-81
2022/07/11 01:58:55;;;;;;;2.58;1.20;;;12.60;99.90;;;;;;5022061;28;20180;-82
2022/07/11 02:01:20;;;;;;;1.98;1.00;;;12.60;99.90;;;;;;5005876;28;20836;-80
2022/07/11 02:03:46;;;;;;;1.98;1.15;;;12.60;99.90;;;;;;5006414;28;20609;-82
2022/07/11 02:06:12;;;;;;;1.60;1.13;;;12.60;99.90;;;;;;5008017;28;20188;-82
2022/07/11 02:08:37;;;;;;;3.25;1.65;;;12.60;99.90;;;;;;5021890;28;20202;-80
2022/07/11 02:11:03;;;;;;;4.32;1.38;;;12.60;99.90;;;;;;4998420;28;20207;-81
2022/07/11 02:13:29;;;;;;;1.58;1.00;;;12.70;99.90;;;;;;5007889;28;20226;-80
2022/07/11 02:15:54;;;;;;;1.55;0.90;;;12.70;99.90;;;;;;5006078;28;20200;-84
2022/07/11 02:18:21;;;;;;;1.33;1.10;;;12.70;99.90;;;;;;5005148;28;20538;-81
2022/07/11 02:20:48;;;;;;;1.85;1.10;;;12.80;99.90;;;;;;5005584;28;20200;-81
2022/07/11 02:23:15;;;;;;;1.83;1.00;;;12.80;99.90;;;;;;5006273;28;20203;-81
2022/07/11 02:25:41;;;;;;;2.22;1.10;;;12.80;99.90;;;;;;5006553;28;20193;-82
2022/07/11 02:28:08;;;;;;;1.23;1.10;;;12.90;99.90;;;;;;5006047;28;20191;-81
2022/07/11 02:30:35;;;;;;;2.65;1.33;;;12.90;99.90;;;;;;5006831;28;20294;-80
2022/07/11 02:33:01;;;;;;;2.05;1.23;;;12.90;99.90;;;;;;5008777;28;20187;-80
2022/07/11 02:35:26;;;;;;;1.20;1.00;;;12.90;99.90;;;;;;5006421;28;20261;-80
2022/07/11 02:37:52;;;;;;;2.05;1.25;;;12.90;99.90;;;;;;5022829;28;20179;-80
2022/07/11 02:40:18;;;;;;;3.35;1.20;;;12.90;99.90;;;;;;5004146;28;20211;-82
2022/07/11 02:43:15;;;;;;;1.50;0.95;;;12.90;99.90;;;;;;5007009;28;20180;-81
2022/07/11 02:45:41;;;;;;;1.27;1.00;;;12.90;99.90;;;;;;5005514;28;20290;-80
2022/07/11 02:48:07;;;;;;;1.92;1.00;;;12.80;99.90;;;;;;5007060;28;20269;-81
2022/07/11 02:50:32;;;;;;;1.65;1.17;;;12.70;99.90;;;;;;5004999;28;20208;-80
2022/07/11 02:53:48;;;;;;;3.10;1.30;;;12.70;99.90;;;;;;5004962;28;20192;-81
2022/07/11 02:56:16;;;;;;;1.52;1.00;;;12.60;99.90;;;;;;5014753;28;20215;-80
2022/07/11 02:58:41;;;;;;;1.27;1.10;;;12.60;99.90;;;;;;5004910;28;20505;-80
2022/07/11 03:01:07;;;;;;;1.33;1.23;;;12.60;99.90;;;;;;5004871;28;20916;-81
2022/07/11 03:03:33;;;;;;;1.27;1.17;;;12.60;99.90;;;;;;5004615;28;20182;-80
2022/07/11 03:05:59;;;;;;;2.38;1.48;;;12.60;99.90;;;;;;5007639;28;20183;-81
2022/07/11 03:08:26;;;;;;;2.53;1.42;;;12.60;99.90;;;;;;5003893;28;20275;-81
2022/07/11 03:10:52;;;;;;;2.35;1.42;;;12.60;99.90;;;;;;5004732;28;20200;-80
2022/07/11 03:13:18;;;;;;;2.17;1.10;;;12.60;99.90;;;;;;5007113;28;20179;-81
2022/07/11 03:15:43;;;;;;;3.42;1.50;;;12.60;99.90;;;;;;5006408;28;20260;-80
2022/07/11 03:18:09;;;;;;;1.98;1.73;;;12.60;99.90;;;;;;5014474;28;20195;-80
2022/07/11 03:20:38;;;;;;;1.40;1.25;;;12.60;99.90;;;;;;5012229;28;20206;-80
2022/07/11 03:23:04;;;;;;;2.03;1.50;;;12.60;99.90;;;;;;5006863;28;20178;-80
2022/07/11 03:25:30;;;;;;;2.00;1.60;;;12.60;99.90;;;;;;5005347;28;20176;-81
2022/07/11 03:27:57;;;;;;;4.68;1.35;;;12.60;99.90;;;;;;5006582;28;20183;-80
2022/07/11 03:30:30;;;;;;;3.25;1.40;;;12.60;99.90;;;;;;5005726;28;20218;-81
2022/07/11 03:32:56;;;;;;;2.28;1.73;;;12.60;99.90;;;;;;5003740;28;20517;-81
2022/07/11 03:38:12;;;;;;;2.45;1.70;;;12.60;99.90;;;;;;5005812;28;20579;-82
2022/07/11 03:40:41;;;;;;;2.70;1.63;;;12.60;99.90;;;;;;5006413;28;20200;-80
2022/07/11 03:43:07;;;;;;;2.53;1.60;;;12.70;99.90;;;;;;5006445;28;20191;-81
2022/07/11 03:45:36;;;;;;;1.92;1.48;;;12.60;99.90;;;;;;5003567;28;20238;-81
2022/07/11 03:48:06;;;;;;;2.20;1.52;;;12.60;99.90;;;;;;5006210;28;20180;-81
2022/07/11 03:50:31;;;;;;;1.60;1.50;;;12.60;99.90;;;;;;5005700;28;20752;-80
2022/07/11 03:52:58;;;;;;;3.25;1.92;;;12.50;99.90;;;;;;5003331;28;20188;-81
2022/07/11 03:55:24;;;;;;;4.40;1.80;;;12.50;99.90;;;;;;5003995;28;20726;-81
2022/07/11 03:57:51;;;;;;;1.83;1.33;;;12.40;99.90;;;;;;5006421;28;20259;-80
2022/07/11 04:00:19;;;;;;;1.80;1.70;;;12.40;99.90;;;;;;5002391;28;20200;-80
2022/07/11 04:02:45;;;;;;;1.80;1.70;;;12.40;99.90;;;;;;5006214;28;20176;-80
2022/07/11 04:05:13;;;;;;;2.95;1.88;;;12.40;99.90;;;;;;5006522;28;20568;-81
2022/07/11 04:07:39;;;;;;;2.10;1.90;;;12.50;99.90;;;;;;5013313;28;20194;-82
2022/07/11 04:10:12;;;;;;;4.10;2.15;;;12.60;99.90;;;;;;5004820;28;20286;-80
2022/07/11 04:12:41;;;;;;;2.10;1.80;;;12.60;99.90;;;;;;5004175;28;20257;-81
2022/07/11 04:15:07;;;;;;;3.30;1.60;;;12.60;99.90;;;;;;5019785;28;20210;-81
2022/07/11 04:17:51;;;;;;;2.47;1.80;;;12.60;99.90;;;;;;5003065;28;20215;-79
2022/07/11 04:20:19;;;;;;;2.13;1.90;;;12.60;99.90;;;;;;5001571;28;20207;-81
2022/07/11 04:22:47;;;;;;;2.75;1.75;;;12.80;99.90;;;;;;4994857;28;20295;-81
2022/07/11 04:25:17;;;;;;;3.17;1.70;;;12.90;99.90;;;;;;5002945;28;20207;-81
2022/07/11 04:27:43;;;;;;;3.60;2.00;;;13.10;99.90;;;;;;5003339;28;20411;-80
2022/07/11 04:30:11;;;;;;;1.83;1.55;;;13.20;99.90;;;;;;5019000;28;20581;-81
2022/07/11 04:33:07;;;;;;;2.95;1.90;;;13.30;99.90;;;;;;5004324;28;20180;-80
2022/07/11 04:35:40;;;;;;;2.70;1.75;;;13.40;99.90;;;;;;5005691;28;20208;-81
2022/07/11 04:38:06;;;;;;;3.47;1.92;;;13.40;99.90;;;;;;5003043;28;20218;-81
2022/07/11 04:43:02;;;;;;;2.92;1.70;;;13.50;99.90;;;;;;5004227;28;20235;-80
2022/07/11 04:45:31;;;;;;;1.85;1.75;;;13.80;99.90;;;;;;5005358;28;20542;-82
2022/07/11 04:48:08;;;;;;;1.92;1.52;;;14.00;99.90;;;;;;5004905;28;20211;-79
2022/07/11 04:50:51;;;;;;;2.38;1.40;;;14.20;99.90;;;;;;5005530;28;20203;-78
2022/07/11 04:53:53;;;;;;;2.00;1.80;;;14.10;99.90;;;;;;4988142;28;20286;-81
2022/07/11 04:56:21;;;;;;;3.60;1.88;;;14.20;99.90;;;;;;4987243;28;20337;-81
2022/07/11 04:58:58;;;;;;;1.73;1.60;;;14.10;99.90;;;;;;4987203;28;20199;-81
2022/07/11 05:01:28;;;;;;;3.15;1.70;;;14.10;99.90;;;;;;4987217;28;20195;-81
2022/07/11 05:04:04;;;;;;;2.13;1.77;;;14.00;99.90;;;;;;4989836;28;20519;-79
2022/07/11 05:06:38;;;;;;;2.63;1.73;;;14.00;99.90;;;;;;5009083;28;20552;-82
2022/07/11 05:09:30;;;;;;;2.42;1.90;;;14.20;99.90;;;;;;4991801;28;20195;-81
2022/07/11 05:12:06;;;;;;;2.50;1.70;;;15.90;99.90;;;;;;4985639;28;20715;-81
2022/07/11 05:17:18;;;;;;;1.27;1.17;;;21.10;1.00;;;;;;4970332;28;20186;-81
2022/07/11 05:19:49;;;;;;;2.35;1.52;;;20.30;1.00;;;;;;5007741;28;20589;-81
2022/07/11 05:22:17;;;;;;;1.60;1.20;;;18.80;1.00;;;;;;5008814;28;20183;-83
2022/07/11 05:25:05;;;;;;;1.85;1.40;;;17.50;1.00;;;;;;5008553;28;20194;-82
2022/07/11 05:27:33;;;;;;;1.90;1.70;;;16.60;18.00;;;;;;5007083;28;20179;-80
2022/07/11 05:30:11;;;;;;;2.33;1.95;;;16.00;99.90;;;;;;5008470;28;20313;-81
2022/07/11 05:32:37;;;;;;;2.80;2.53;;;15.70;99.90;;;;;;4991019;28;20179;-82
2022/07/11 05:35:04;;;;;;;2.83;2.22;;;15.40;99.90;;;;;;4991432;28;20733;-82
2022/07/11 05:37:32;;;;;;;4.28;2.78;;;15.20;99.90;;;;;;5008942;28;20204;-82
2022/07/11 05:39:58;;;;;;;3.72;2.67;;;15.10;99.90;;;;;;5006988;28;20234;-81
2022/07/11 05:42:23;;;;;;;5.00;2.90;;;15.10;99.90;;;;;;4991923;28;20670;-80
2022/07/11 05:44:49;;;;;;;3.38;2.55;;;15.90;99.90;;;;;;5009792;28;20219;-82
2022/07/11 05:47:21;;;;;;;3.50;2.33;;;17.60;27.50;;;;;;5009647;28;21151;-82
2022/07/11 05:49:58;;;;;;;;;;;;;;;;;;;;;
2022/07/11 05:52:39;;;;;;;4.47;1.95;;;19.20;1.00;;;;;;5008624;28;20187;-79
2022/07/11 05:55:57;;;;;;;2.55;2.10;;;18.30;1.00;;;;;;4991148;28;20203;-81
2022/07/11 05:59:23;;;;;;;;;;;;;;;;;;;;;
2022/07/11 06:01:58;;;;;;;3.20;1.88;;;23.20;99.90;;;;;;5008224;28;20175;-82
2022/07/11 06:05:16;;;;;;;1.70;1.50;;;23.60;1.00;;;;;;5007956;28;20182;-83
2022/07/11 06:08:50;;;;;;;2.78;1.73;;;20.70;1.00;;;;;;4983486;28;20195;-83
2022/07/11 06:11:31;;;;;;;2.58;1.70;;;18.60;1.00;;;;;;4990731;28;20191;-82
2022/07/11 06:14:01;;;;;;;2.70;2.13;;;17.40;1.00;;;;;;4990758;28;20179;-81
2022/07/11 06:16:50;;;;;;;2.92;2.00;;;17.00;1.00;;;;;;5007219;28;20371;-82
2022/07/11 06:19:21;;;;;;;2.50;2.25;;;16.50;1.00;;;;;;4990010;28;20190;-84
2022/07/11 06:22:05;;;;;;;2.30;2.10;;;16.30;1.00;;;;;;5008256;28;20191;-82
2022/07/11 06:24:31;;;;;;;2.47;2.28;;;16.30;1.00;;;;;;4990654;28;20187;-82
2022/07/11 06:27:32;;;;;;;3.58;2.10;;;16.80;1.00;;;;;;4990480;28;20187;-81
2022/07/11 06:30:03;;;;;;;1.40;1.30;;;18.90;99.90;;;;;;4989045;28;20666;-82
2022/07/11 06:32:39;;;;;;;;;;;;;;;;;;;;;
2022/07/11 06:52:27;;;;;;;1.60;1.10;;;24.80;1.00;;;;;;4939445;29;20189;-81
2022/07/11 06:54:52;;;;;;;1.92;1.08;;;24.20;1.00;;;;;;4925936;28;20221;-82
2022/07/11 06:57:18;;;;;;;0.98;0.70;;;24.50;1.00;;;;;;4947107;28;20250;-82
2022/07/11 07:03:09;;;;;;;2.83;0.88;;;27.90;1.00;;;;;;5030018;28;20220;-84
2022/07/11 07:05:37;;;;;;;1.55;0.90;;;28.90;1.00;;;;;;5020133;28;20201;-84
2022/07/11 07:08:03;;;;;;;1.40;1.10;;;29.30;99.90;;;;;;5034743;28;20183;-84
2022/07/11 07:10:56;;;;;;;1.83;0.90;;;28.80;99.90;;;;;;5018635;28;20256;-84
2022/07/11 07:13:29;;;;;;;1.30;0.90;;;28.00;99.90;;;;;;5017380;28;20191;-84
2022/07/11 07:15:56;;;;;;;1.58;0.93;;;27.70;99.90;;;;;;5028856;28;20183;-80
2022/07/11 07:18:23;;;;;;;1.98;0.90;;;26.70;99.90;;;;;;5027621;28;20232;-83
2022/07/11 07:20:49;;;;;;;0.90;0.80;;;24.10;99.90;;;;;;5028421;28;21191;-82
2022/07/11 07:23:15;;;;;;;2.15;0.90;;;24.40;1.00;;;;;;5028696;28;20174;-80
2022/07/11 07:25:41;;;;;;;0.82;0.80;;;25.90;1.00;;;;;;5028548;28;20179;-82
2022/07/11 07:28:06;;;;;;;1.10;0.80;;;24.50;1.00;;;;;;5018043;28;20237;-77
2022/07/11 07:30:33;;;;;;;1.45;0.82;;;24.90;1.00;;;;;;5027437;28;20301;-80
2022/07/11 07:33:00;;;;;;;1.25;0.80;;;23.40;1.00;;;;;;5027842;28;20187;-78
2022/07/11 07:35:26;;;;;;;1.10;0.82;;;21.50;1.00;;;;;;5027663;28;20644;-80
2022/07/11 07:37:52;;;;;;;1.48;0.70;;;20.70;99.90;;;;;;5028033;28;20175;-79
2022/07/11 07:40:18;;;;;;;1.20;1.00;;;20.30;1.00;;;;;;5016734;28;20199;-78
2022/07/11 07:42:44;;;;;;;1.10;0.70;;;19.90;99.90;;;;;;5027416;28;20190;-79
2022/07/11 07:45:09;;;;;;;2.38;0.70;;;19.80;1.00;;;;;;5027357;28;20222;-79
2022/07/11 07:47:36;;;;;;;1.30;0.93;;;19.90;1.00;;;;;;5027764;28;20186;-79
2022/07/11 07:50:02;;;;;;;0.73;0.73;;;19.90;1.00;;;;;;5026362;28;20237;-80
2022/07/11 07:52:28;;;;;;;1.02;0.90;;;20.00;99.90;;;;;;5026444;28;20175;-80
2022/07/11 07:54:53;;;;;;;1.58;0.93;;;20.00;1.00;;;;;;5026805;28;20190;-79
2022/07/11 07:57:19;;;;;;;2.15;1.10;;;20.30;1.00;;;;;;5027703;28;20253;-80
2022/07/11 07:59:45;;;;;;;2.63;1.02;;;20.40;99.90;;;;;;5025601;28;20214;-79
2022/07/11 08:02:10;;;;;;;12.55;4.75;;;20.20;97.10;;;;;;5026467;28;20183;-76
2022/07/11 08:04:36;;;;;;;7.82;2.75;;;20.00;99.90;;;;;;5024822;28;20175;-79
2022/07/11 08:07:03;;;;;;;0.98;0.80;;;20.10;1.00;;;;;;5013265;28;20601;-79
2022/07/11 08:09:29;;;;;;;3.20;1.05;;;19.60;28.20;;;;;;5023843;28;20209;-77
2022/07/11 08:11:55;;;;;;;0.88;0.80;;;19.10;99.90;;;;;;5024256;28;20175;-79
2022/07/11 08:14:22;;;;;;;0.90;0.90;;;18.90;99.90;;;;;;5023971;28;20178;-79
2022/07/11 08:16:48;;;;;;;2.38;0.90;;;18.90;99.90;;;;;;5024637;28;20284;-77
2022/07/11 08:19:15;;;;;;;2.35;1.10;;;19.00;70.60;;;;;;5024079;28;20203;-79
2022/07/11 08:21:41;;;;;;;1.70;0.95;;;19.30;99.90;;;;;;5014599;28;20213;-80
2022/07/11 08:24:07;;;;;;;1.35;0.93;;;19.60;1.00;;;;;;5024238;28;20179;-79
2022/07/11 08:26:33;;;;;;;0.95;0.70;;;19.60;99.90;;;;;;5024102;28;20236;-78
2022/07/11 08:29:03;;;;;;;1.00;0.80;;;19.90;1.00;;;;;;5014350;28;20232;-81
2022/07/11 08:31:30;;;;;;;3.17;2.42;;;19.70;1.00;;;;;;5025175;28;20182;-81
2022/07/11 08:33:58;;;;;;;2.95;1.25;;;19.70;1.00;;;;;;5016047;28;20193;-81
2022/07/11 08:36:23;;;;;;;2.00;1.45;;;19.60;1.00;;;;;;5025225;28;20796;-82
2022/07/11 08:38:49;;;;;;;2.47;1.50;;;19.60;1.00;;;;;;5024182;28;20269;-77
2022/07/11 08:41:16;;;;;;;2.45;1.20;;;19.80;1.00;;;;;;5024798;28;20218;-80
2022/07/11 08:43:43;;;;;;;2.15;1.00;;;19.80;1.00;;;;;;5025410;28;20171;-81
2022/07/11 08:46:10;;;;;;;2.67;0.95;;;19.50;1.00;;;;;;5016429;28;20195;-81
2022/07/11 08:48:39;;;;;;;3.83;0.95;;;19.40;1.00;;;;;;5024199;28;20269;-82
2022/07/11 08:51:06;;;;;;;1.13;1.00;;;19.30;99.90;;;;;;5014750;28;20603;-81
2022/07/11 08:53:33;;;;;;;1.35;1.23;;;19.30;99.90;;;;;;5014536;28;20217;-81
2022/07/11 08:56:00;;;;;;;4.72;1.25;;;19.50;99.90;;;;;;5023693;28;20201;-79
2022/07/11 08:58:45;;;;;;;0.90;0.70;;;19.50;1.00;;;;;;5026822;28;20171;-81
2022/07/11 09:01:12;;;;;;;1.15;0.73;;;19.60;1.00;;;;;;5033749;28;20309;-84
2022/07/11 09:03:38;;;;;;;0.98;0.80;;;19.70;1.00;;;;;;5025865;28;20167;-84
2022/07/11 09:06:03;;;;;;;1.50;0.90;;;19.90;1.00;;;;;;5025212;28;20190;-80
2022/07/11 09:08:31;;;;;;;0.98;0.70;;;19.80;9.90;;;;;;5024764;28;20185;-81
2022/07/11 09:10:56;;;;;;;0.70;0.70;;;19.90;1.00;;;;;;5024490;28;20198;-81
2022/07/11 09:13:28;;;;;;;2.25;1.25;;;20.00;1.00;;;;;;5014164;28;20190;-80
2022/07/11 09:16:01;;;;;;;2.67;0.90;;;20.00;99.90;;;;;;5023529;28;20195;-79
2022/07/11 09:18:37;;;;;;;1.05;0.90;;;20.00;57.50;;;;;;5022888;28;20199;-78
2022/07/11 09:26:45;;;;;;;1.25;1.10;;;19.70;99.90;;;;;;5022130;28;20999;-77
2022/07/11 09:29:20;;;;;;;1.10;0.80;;;19.70;99.90;;;;;;5023280;28;20179;-78
2022/07/11 09:31:47;;;;;;;1.98;1.05;;;19.70;99.90;;;;;;5023495;28;20278;-79
2022/07/11 09:34:15;;;;;;;1.95;0.98;;;19.70;1.00;;;;;;5024548;28;20277;-78
2022/07/11 09:36:46;;;;;;;1.70;1.05;;;19.90;1.00;;;;;;5013719;28;20729;-79
2022/07/11 09:39:16;;;;;;;2.58;1.20;;;20.10;1.00;;;;;;5012136;28;20540;-77
2022/07/11 09:41:43;;;;;;;1.15;1.05;;;20.30;1.00;;;;;;5024288;28;20198;-80
2022/07/11 09:44:14;;;;;;;1.05;1.00;;;20.40;1.00;;;;;;5025508;28;20187;-78
2022/07/11 09:46:42;;;;;;;1.30;0.85;;;20.50;1.00;;;;;;5025352;28;20236;-79
2022/07/11 09:49:08;;;;;;;4.90;3.20;;;20.70;99.90;;;;;;5023259;28;20191;-77
2022/07/11 09:51:35;;;;;;;1.40;1.20;;;20.90;99.90;;;;;;5026558;28;20245;-75
2022/07/11 09:54:04;;;;;;;1.30;1.02;;;21.10;99.90;;;;;;5027456;28;20300;-75
2022/07/11 09:56:45;;;;;;;1.73;1.35;;;21.30;99.90;;;;;;5016137;28;20904;-76
2022/07/11 09:59:12;;;;;;;1.38;1.10;;;21.30;99.90;;;;;;5026176;28;20166;-77
2022/07/11 10:01:39;;;;;;;1.40;0.88;;;21.30;99.90;;;;;;5026969;28;20187;-76
2022/07/11 10:04:09;;;;;;;1.13;0.95;;;21.10;99.90;;;;;;5027411;28;20175;-77
2022/07/11 10:06:36;;;;;;;2.00;0.88;;;20.90;1.00;;;;;;5025856;28;20546;-76
2022/07/11 10:09:04;;;;;;;1.70;1.00;;;20.90;1.00;;;;;;5025923;28;20170;-76
2022/07/11 10:11:32;;;;;;;1.00;0.98;;;20.80;1.00;;;;;;5024753;28;20194;-75
2022/07/11 10:14:00;;;;;;;0.95;0.93;;;20.90;1.00;;;;;;5025175;28;20713;-75
2022/07/11 10:17:04;;;;;;;0.93;0.80;;;21.20;99.90;;;;;;5027570;28;20222;-75
2022/07/11 10:19:57;;;;;;;0.90;0.80;;;21.40;99.90;;;;;;5026927;28;20213;-77
2022/07/11 10:22:39;;;;;;;0.68;0.57;;;21.40;99.90;;;;;;5027744;28;20642;-76
2022/07/11 10:25:31;;;;;;;0.55;0.50;;;21.50;99.90;;;;;;5025801;28;20187;-78
2022/07/11 10:28:13;;;;;;;1.23;0.55;;;21.30;99.90;;;;;;5026445;28;20195;-78
2022/07/11 10:30:52;;;;;;;0.55;0.50;;;21.00;99.90;;;;;;5027051;28;20646;-76
2022/07/11 10:33:19;;;;;;;1.50;0.60;;;20.70;99.90;;;;;;5026823;28;20183;-76
2022/07/11 10:35:50;;;;;;;0.50;0.40;;;20.80;99.90;;;;;;5026264;28;20194;-75
2022/07/11 10:38:16;;;;;;;0.90;0.55;;;20.70;1.00;;;;;;5026877;28;20530;-75
2022/07/11 10:40:50;;;;;;;0.50;0.50;;;20.60;1.00;;;;;;5027013;28;20222;-76
2022/07/11 10:43:33;;;;;;;0.77;0.30;;;20.70;1.00;;;;;;5027431;28;20194;-75
2022/07/11 10:46:00;;;;;;;0.40;0.30;;;21.00;1.00;;;;;;5027039;28;20178;-76
2022/07/11 10:48:27;;;;;;;6.90;0.88;;;21.10;1.00;;;;;;5026061;28;20202;-76
2022/07/11 10:51:02;;;;;;;1.33;0.50;;;21.20;1.00;;;;;;5026468;28;20230;-76
2022/07/11 10:53:33;;;;;;;0.63;0.50;;;21.00;1.00;;;;;;5026884;28;20261;-76
2022/07/11 10:56:20;;;;;;;1.33;0.70;;;21.00;1.00;;;;;;5026926;28;20294;-76
2022/07/11 10:58:55;;;;;;;0.77;0.68;;;21.00;46.30;;;;;;5017259;28;20202;-76
2022/07/11 11:01:21;;;;;;;2.20;0.60;;;20.70;99.90;;;;;;5026384;28;20210;-77
2022/07/11 11:03:47;;;;;;;0.57;0.57;;;20.80;99.90;;;;;;5027767;28;20240;-75
2022/07/11 11:06:13;;;;;;;0.73;0.73;;;21.10;1.00;;;;;;5026622;28;20179;-75
2022/07/11 11:08:40;;;;;;;1.67;0.70;;;21.30;1.00;;;;;;5025918;28;20696;-76
2022/07/11 11:11:21;;;;;;;2.78;0.60;;;21.10;99.90;;;;;;5026115;28;20704;-76
2022/07/11 11:14:17;;;;;;;0.93;0.60;;;20.90;1.00;;;;;;5016566;28;20187;-76
2022/07/11 11:16:43;;;;;;;3.33;0.88;;;20.60;67.80;;;;;;5025087;28;20689;-76
2022/07/11 11:19:47;;;;;;;1.13;0.80;;;20.50;99.90;;;;;;5024929;28;20185;-75
2022/07/11 11:22:18;;;;;;;0.70;0.68;;;20.60;99.90;;;;;;5024252;28;20270;-76
2022/07/11 11:24:44;;;;;;;5.43;1.00;;;20.70;99.90;;;;;;5027075;28;20657;-76
2022/07/11 11:27:19;;;;;;;1.05;0.60;;;20.90;99.90;;;;;;5016269;28;20278;-76
2022/07/11 11:29:45;;;;;;;1.13;0.70;;;21.00;99.90;;;;;;5025387;28;20201;-76
2022/07/11 11:32:11;;;;;;;0.40;0.40;;;21.20;49.80;;;;;;5026205;28;20258;-76
2022/07/11 11:34:41;;;;;;;2.70;0.80;;;21.50;1.00;;;;;;5026307;28;20185;-75
2022/07/11 11:37:07;;;;;;;1.25;0.80;;;21.70;1.00;;;;;;5026184;28;20270;-76
2022/07/11 11:39:39;;;;;;;1.70;0.80;;;22.00;1.00;;;;;;5013486;28;20336;-75
2022/07/11 11:42:06;;;;;;;1.02;0.82;;;21.80;99.90;;;;;;5025342;28;20931;-75
2022/07/11 11:44:33;;;;;;;1.17;0.75;;;21.60;99.90;;;;;;5025863;28;20262;-74
2022/07/11 11:46:59;;;;;;;1.45;0.70;;;21.60;99.90;;;;;;5025480;28;20190;-75
2022/07/11 11:49:25;;;;;;;1.42;0.50;;;21.70;1.00;;;;;;5025422;28;20218;-75
2022/07/11 11:51:54;;;;;;;1.67;0.90;;;21.80;1.00;;;;;;5025608;28;20187;-76
2022/07/11 11:54:25;;;;;;;0.98;0.50;;;21.80;99.90;;;;;;5025615;28;20218;-77
2022/07/11 11:56:50;;;;;;;0.65;0.40;;;21.90;99.90;;;;;;5024887;28;21034;-75
2022/07/11 11:59:16;;;;;;;0.88;0.65;;;22.10;99.90;;;;;;5024974;28;20240;-76
2022/07/11 12:01:47;;;;;;;0.68;0.43;;;22.20;99.90;;;;;;5025498;28;20669;-75
2022/07/11 12:04:15;;;;;;;0.63;0.50;;;22.40;98.10;;;;;;5025938;28;20183;-75
2022/07/11 12:06:46;;;;;;;1.50;0.50;;;22.40;99.90;;;;;;5025461;28;20717;-75
2022/07/11 12:14:51;;;;;;;0.60;0.35;;;22.70;1.00;;;;;;5025378;28;20289;-75
2022/07/11 12:17:23;;;;;;;1.05;0.40;;;22.50;38.60;;;;;;5025198;28;20259;-76
2022/07/11 12:19:49;;;;;;;1.20;0.70;;;22.50;99.90;;;;;;5024595;28;20701;-76
2022/07/11 12:22:15;;;;;;;0.95;0.55;;;22.70;99.90;;;;;;5024866;28;20601;-76
2022/07/11 12:24:47;;;;;;;0.90;0.30;;;22.50;83.10;;;;;;5025695;28;20646;-75
2022/07/11 12:27:20;;;;;;;0.50;0.40;;;22.30;99.90;;;;;;5025250;28;20179;-76
2022/07/11 12:29:50;;;;;;;0.93;0.63;;;22.00;99.90;;;;;;5011902;28;20294;-75
2022/07/11 12:32:17;;;;;;;3.45;3.15;;;22.10;99.90;;;;;;5024656;28;20186;-75
2022/07/11 12:34:44;;;;;;;2.42;1.95;;;22.20;99.90;;;;;;5025090;28;21196;-75
2022/07/11 12:37:13;;;;;;;2.17;1.98;;;22.40;89.60;;;;;;5024753;28;20187;-76
2022/07/11 12:39:46;;;;;;;1.70;0.50;;;22.50;13.00;;;;;;5024270;28;20285;-75
2022/07/11 12:42:32;;;;;;;3.22;0.50;;;22.50;57.40;;;;;;5024760;28;20193;-75
2022/07/11 12:45:11;;;;;;;0.30;0.30;;;22.50;93.90;;;;;;5024699;28;20731;-77
2022/07/11 12:47:41;;;;;;;0.30;0.30;;;22.70;43.50;;;;;;5023976;28;20592;-75
2022/07/11 12:50:22;;;;;;;0.38;0.30;;;22.90;1.00;;;;;;5023428;28;20215;-75
2022/07/11 12:52:59;;;;;;;0.63;0.20;;;23.00;1.00;;;;;;5012992;28;20183;-73
2022/07/11 12:55:30;;;;;;;1.00;0.30;;;23.10;1.00;;;;;;5024271;28;20206;-75
2022/07/11 12:58:17;;;;;;;0.75;0.40;;;23.10;1.00;;;;;;5023980;28;20191;-75
2022/07/11 13:00:56;;;;;;;1.60;0.30;;;23.30;1.00;;;;;;5022787;28;21044;-73
2022/07/11 13:03:34;;;;;;;0.10;0.10;;;23.20;1.00;;;;;;5023213;28;20186;-74
2022/07/11 13:06:02;;;;;;;0.20;0.20;;;22.80;1.00;;;;;;5024973;28;20187;-75
2022/07/11 13:08:42;;;;;;;0.30;0.30;;;22.60;1.00;;;;;;5024385;28;20544;-74
2022/07/11 13:11:08;;;;;;;0.50;0.20;;;22.50;1.00;;;;;;5024987;28;20210;-75
2022/07/11 13:13:34;;;;;;;0.20;0.20;;;22.50;1.00;;;;;;5024095;28;20193;-75
2022/07/11 13:15:59;;;;;;;0.65;0.30;;;22.50;1.00;;;;;;5024887;28;20658;-76
2022/07/11 13:18:25;;;;;;;0.22;0.22;;;22.60;1.00;;;;;;5024220;28;20195;-75
2022/07/11 13:20:51;;;;;;;0.40;0.20;;;22.60;1.00;;;;;;5025103;28;20207;-74
2022/07/11 13:23:17;;;;;;;0.30;0.30;;;22.70;1.00;;;;;;5025755;28;20183;-74
2022/07/11 13:25:42;;;;;;;0.70;0.30;;;22.70;1.00;;;;;;5028189;28;20962;-75
2022/07/11 13:28:09;;;;;;;0.30;0.30;;;22.60;1.00;;;;;;5028867;28;20222;-74
2022/07/11 13:30:35;;;;;;;1.30;0.30;;;23.00;1.00;;;;;;5028783;28;20202;-75
2022/07/11 13:33:00;;;;;;;1.17;0.40;;;23.10;1.00;;;;;;5029083;28;20637;-75
2022/07/11 13:35:26;;;;;;;1.17;0.50;;;22.90;1.00;;;;;;5020153;28;20218;-74
2022/07/11 13:37:53;;;;;;;0.57;0.47;;;22.70;1.00;;;;;;5028723;28;20190;-75
2022/07/11 13:40:21;;;;;;;0.60;0.30;;;22.60;30.40;;;;;;5027842;28;20195;-74
2022/07/11 13:42:52;;;;;;;1.73;0.47;;;22.50;13.10;;;;;;5027933;28;20651;-74
2022/07/11 13:45:22;;;;;;;1.20;0.40;;;22.60;99.90;;;;;;5017321;28;20558;-75
2022/07/11 13:47:49;;;;;;;1.05;0.40;;;22.60;99.90;;;;;;5028483;28;20233;-75
2022/07/11 13:50:16;;;;;;;0.75;0.40;;;22.80;99.90;;;;;;5018572;28;20557;-75